createdAt,value
2023-03-24T00:02:31.337Z,14.70
2023-03-24T00:05:06.007Z,14.90
2023-03-24T00:07:40.870Z,14.80
2023-03-24T00:10:20.646Z,14.80
2023-03-24T00:12:54.903Z,14.80
2023-03-24T00:15:30.021Z,14.80
2023-03-24T00:18:05.520Z,14.80
2023-03-24T00:20:41.351Z,14.80
2023-03-24T00:23:15.548Z,14.80
2023-03-24T00:25:49.599Z,14.80
2023-03-24T00:28:23.204Z,14.80
2023-03-24T00:30:57.580Z,14.80
2023-03-24T00:33:35.364Z,14.80
2023-03-24T00:36:13.428Z,14.80
2023-03-24T00:38:48.701Z,14.80
2023-03-24T00:41:27.433Z,14.80
2023-03-24T00:44:06.321Z,14.80
2023-03-24T00:46:40.471Z,14.80
2023-03-24T00:49:18.044Z,14.80
2023-03-24T00:51:52.600Z,14.80
2023-03-24T00:54:27.972Z,14.80
2023-03-24T00:57:03.303Z,14.80
2023-03-24T00:59:42.565Z,14.80
2023-03-24T01:02:19.352Z,14.80
2023-03-24T01:04:59.049Z,14.80
2023-03-24T01:07:33.899Z,14.80
2023-03-24T01:10:11.018Z,14.80
2023-03-24T01:12:45.162Z,14.80
2023-03-24T01:15:22.112Z,14.80
2023-03-24T01:17:56.191Z,14.80
2023-03-24T01:20:33.673Z,14.80
2023-03-24T01:23:09.397Z,14.90
2023-03-24T01:25:45.476Z,14.90
2023-03-24T01:28:25.482Z,14.90
2023-03-24T01:30:59.913Z,14.90
2023-03-24T01:33:34.442Z,14.90
2023-03-24T01:36:13.062Z,14.90
2023-03-24T01:38:47.109Z,14.90
2023-03-24T01:41:21.185Z,14.90
2023-03-24T01:43:55.715Z,14.80
2023-03-24T01:46:33.367Z,14.90
2023-03-24T01:49:09.875Z,14.90
2023-03-24T01:51:49.580Z,14.90
2023-03-24T01:54:28.048Z,14.90
2023-03-24T01:57:11.866Z,14.80
2023-03-24T01:59:51.216Z,14.80
2023-03-24T02:02:25.546Z,14.90
2023-03-24T02:05:04.900Z,14.80
2023-03-24T02:07:50.350Z,14.90
2023-03-24T02:10:26.467Z,14.80
2023-03-24T02:13:00.749Z,14.90
2023-03-24T02:15:42.786Z,14.90
2023-03-24T02:18:29.122Z,14.90
2023-03-24T02:21:53.573Z,14.90
2023-03-24T02:25:41.730Z,14.90
2023-03-24T02:28:33.485Z,14.90
2023-03-24T02:31:54.424Z,14.90
2023-03-24T02:35:16.580Z,14.90
2023-03-24T02:38:38.584Z,14.90
2023-03-24T02:41:28.676Z,14.90
2023-03-24T02:44:12.833Z,14.90
2023-03-24T02:46:55.168Z,14.90
2023-03-24T02:49:39.749Z,14.90
2023-03-24T02:52:23.043Z,14.90
2023-03-24T02:55:05.569Z,14.90
2023-03-24T02:57:49.919Z,15.00
2023-03-24T03:00:37.780Z,15.00
2023-03-24T03:03:20.890Z,14.90
2023-03-24T03:06:01.225Z,15.00
2023-03-24T03:08:38.189Z,15.00
2023-03-24T03:11:18.115Z,15.00
2023-03-24T03:14:01.029Z,15.10
2023-03-24T03:16:43.632Z,15.10
2023-03-24T03:19:23.733Z,15.10
2023-03-24T03:22:00.615Z,15.10
2023-03-24T03:24:40.793Z,15.10
2023-03-24T03:27:21.704Z,15.20
2023-03-24T03:30:04.151Z,15.20
2023-03-24T03:32:54.690Z,15.20
2023-03-24T03:35:37.579Z,15.20
2023-03-24T03:38:19.837Z,15.20
2023-03-24T03:40:57.198Z,15.20
2023-03-24T03:43:36.284Z,15.30
2023-03-24T03:46:12.977Z,15.30
2023-03-24T03:48:48.009Z,15.30
2023-03-24T03:51:22.589Z,15.30
2023-03-24T03:54:01.242Z,15.40
2023-03-24T03:56:38.832Z,15.40
2023-03-24T03:59:27.579Z,15.40
2023-03-24T04:02:26.553Z,15.40
2023-03-24T04:05:31.551Z,15.20
2023-03-24T04:08:25.731Z,15.50
2023-03-24T04:11:41.669Z,15.50
2023-03-24T04:14:42.683Z,15.50
2023-03-24T04:17:34.234Z,15.50
2023-03-24T04:20:18.084Z,15.50
2023-03-24T04:23:09.858Z,15.50
2023-03-24T04:25:58.768Z,15.40
2023-03-24T04:28:43.028Z,15.50
2023-03-24T04:31:27.546Z,15.40
2023-03-24T04:34:14.312Z,15.40
2023-03-24T04:36:54.770Z,15.40
2023-03-24T04:39:32.443Z,15.40
2023-03-24T04:43:21.460Z,15.30
2023-03-24T04:45:57.908Z,15.30
2023-03-24T04:48:32.310Z,15.30
2023-03-24T04:51:11.297Z,15.30
2023-03-24T04:53:45.757Z,15.30
2023-03-24T04:56:39.481Z,15.30
2023-03-24T04:59:14.025Z,15.30
2023-03-24T05:01:50.013Z,15.20
2023-03-24T05:04:26.804Z,15.20
2023-03-24T05:07:02.678Z,15.30
2023-03-24T05:09:36.582Z,15.30
2023-03-24T05:12:10.755Z,15.20
2023-03-24T05:14:44.463Z,15.20
2023-03-24T05:17:18.166Z,15.20
2023-03-24T05:19:52.203Z,15.20
2023-03-24T05:22:27.950Z,15.20
2023-03-24T05:25:01.978Z,15.20
2023-03-24T05:27:35.966Z,15.20
2023-03-24T05:30:10.743Z,15.10
2023-03-24T05:32:46.127Z,15.20
2023-03-24T05:35:23.134Z,15.20
2023-03-24T05:37:58.025Z,15.20
2023-03-24T05:40:31.867Z,15.10
2023-03-24T05:43:08.242Z,15.10
2023-03-24T05:45:42.123Z,15.10
2023-03-24T05:48:15.714Z,15.10
2023-03-24T05:50:49.669Z,15.00
2023-03-24T05:53:24.969Z,15.00
2023-03-24T05:55:58.863Z,14.90
2023-03-24T05:58:36.406Z,14.90
2023-03-24T06:01:18.495Z,14.80
2023-03-24T06:03:52.524Z,14.80
2023-03-24T06:06:26.523Z,14.70
2023-03-24T06:09:02.621Z,14.70
2023-03-24T06:11:36.364Z,14.60
2023-03-24T06:14:10.588Z,14.60
2023-03-24T06:16:44.359Z,14.50
2023-03-24T06:19:19.291Z,14.50
2023-03-24T06:21:54.033Z,14.50
2023-03-24T06:24:29.896Z,14.40
2023-03-24T06:27:04.094Z,14.60
2023-03-24T06:29:38.917Z,14.40
2023-03-24T06:32:12.755Z,14.30
2023-03-24T06:34:46.737Z,14.30
2023-03-24T06:37:24.324Z,14.30
2023-03-24T06:40:00.291Z,14.20
2023-03-24T06:42:34.631Z,14.20
2023-03-24T06:45:12.038Z,14.20
2023-03-24T06:47:45.572Z,14.10
2023-03-24T06:50:19.218Z,14.10
2023-03-24T06:52:52.996Z,14.10
2023-03-24T06:55:28.395Z,14.10
2023-03-24T06:58:02.471Z,14.00
2023-03-24T07:00:37.001Z,14.00
2023-03-24T07:03:14.666Z,14.10
2023-03-24T07:05:48.197Z,14.00
2023-03-24T07:10:59.983Z,14.10
2023-03-24T07:13:35.231Z,14.10
2023-03-24T07:16:09.988Z,13.90
2023-03-24T07:18:43.954Z,14.10
2023-03-24T07:21:18.325Z,14.10
2023-03-24T07:23:52.769Z,14.10
2023-03-24T07:26:29.431Z,14.10
2023-03-24T07:29:04.000Z,14.10
2023-03-24T07:31:38.310Z,14.10
2023-03-24T07:34:13.090Z,14.10
2023-03-24T07:36:50.105Z,14.20
2023-03-24T07:39:24.784Z,14.10
2023-03-24T07:41:59.819Z,14.20
2023-03-24T07:44:33.435Z,14.20
2023-03-24T07:47:07.637Z,14.20
2023-03-24T07:49:43.050Z,14.20
2023-03-24T07:52:16.653Z,14.30
2023-03-24T07:54:52.239Z,14.30
2023-03-24T07:57:27.268Z,14.30
2023-03-24T08:00:01.868Z,14.40
2023-03-24T08:02:35.860Z,14.40
2023-03-24T08:05:10.958Z,14.40
2023-03-24T08:07:50.630Z,14.40
2023-03-24T08:10:28.223Z,14.50
2023-03-24T08:13:03.660Z,14.50
2023-03-24T08:15:38.002Z,14.50
2023-03-24T08:18:12.840Z,14.60
2023-03-24T08:20:46.864Z,14.60
2023-03-24T08:23:20.686Z,14.60
2023-03-24T08:25:54.435Z,14.70
2023-03-24T08:28:30.189Z,14.70
2023-03-24T08:31:04.156Z,14.80
2023-03-24T08:33:38.560Z,14.80
2023-03-24T08:36:13.175Z,14.90
2023-03-24T08:38:48.485Z,14.90
2023-03-24T08:41:23.253Z,15.00
2023-03-24T08:43:58.455Z,15.00
2023-03-24T08:46:35.544Z,15.10
2023-03-24T08:49:10.785Z,15.10
2023-03-24T08:51:45.827Z,15.20
2023-03-24T08:54:22.073Z,15.20
2023-03-24T08:56:56.005Z,15.20
2023-03-24T08:59:32.729Z,15.20
2023-03-24T09:02:06.433Z,15.20
2023-03-24T09:04:42.736Z,15.20
2023-03-24T09:07:17.136Z,15.30
2023-03-24T09:09:52.443Z,15.30
2023-03-24T09:12:26.494Z,15.40
2023-03-24T09:15:01.851Z,15.40
2023-03-24T09:17:36.704Z,15.50
2023-03-24T09:20:14.460Z,15.50
2023-03-24T09:22:51.397Z,15.60
2023-03-24T09:25:25.726Z,15.70
2023-03-24T09:27:59.563Z,15.70
2023-03-24T09:30:35.221Z,15.80
2023-03-24T09:33:08.913Z,15.80
2023-03-24T09:35:42.945Z,15.90
2023-03-24T09:38:17.886Z,15.90
2023-03-24T09:40:57.916Z,16.00
2023-03-24T09:43:39.477Z,16.00
2023-03-24T09:46:23.390Z,16.10
2023-03-24T09:48:58.314Z,16.10
2023-03-24T09:51:37.885Z,16.10
2023-03-24T09:54:22.369Z,16.10
2023-03-24T09:56:58.722Z,16.10
2023-03-24T09:59:39.205Z,16.10
2023-03-24T10:02:19.574Z,16.20
2023-03-24T10:04:53.289Z,16.20
2023-03-24T10:07:35.421Z,16.20
2023-03-24T10:10:26.010Z,16.20
2023-03-24T10:13:09.123Z,16.20
2023-03-24T10:15:53.418Z,16.20
2023-03-24T10:18:40.124Z,16.20
2023-03-24T10:21:22.561Z,16.20
2023-03-24T10:24:08.477Z,16.20
2023-03-24T10:26:54.501Z,16.20
2023-03-24T10:29:31.926Z,16.20
2023-03-24T10:32:15.629Z,16.20
2023-03-24T10:34:59.760Z,16.20
2023-03-24T10:37:33.453Z,16.20
2023-03-24T10:40:33.732Z,16.20
2023-03-24T10:43:09.696Z,16.20
2023-03-24T10:45:48.601Z,16.20
2023-03-24T10:48:50.055Z,16.20
2023-03-24T10:51:29.284Z,16.20
2023-03-24T10:54:15.701Z,16.20
2023-03-24T10:56:51.802Z,16.40
2023-03-24T10:59:32.235Z,16.40
2023-03-24T11:02:20.196Z,16.50
2023-03-24T11:04:59.908Z,16.60
2023-03-24T11:07:39.669Z,16.80
2023-03-24T11:10:19.274Z,16.90
2023-03-24T11:13:05.684Z,17.00
2023-03-24T11:15:41.409Z,17.20
2023-03-24T11:18:18.184Z,17.30
2023-03-24T11:21:00.921Z,17.40
2023-03-24T11:23:41.031Z,17.20
2023-03-24T11:26:17.972Z,17.40
2023-03-24T11:28:57.529Z,17.50
2023-03-24T11:31:35.247Z,17.50
2023-03-24T11:34:17.372Z,17.60
2023-03-24T11:36:56.302Z,17.60
2023-03-24T11:39:34.236Z,17.60
2023-03-24T11:42:18.673Z,17.60
2023-03-24T11:44:56.543Z,17.60
2023-03-24T11:47:34.179Z,17.50
2023-03-24T11:50:22.753Z,17.50
2023-03-24T11:53:05.726Z,17.50
2023-03-24T11:56:14.448Z,17.50
2023-03-24T11:58:53.718Z,17.50
2023-03-24T12:01:36.797Z,17.60
2023-03-24T12:04:35.995Z,17.60
2023-03-24T12:08:12.254Z,17.70
2023-03-24T12:11:02.497Z,17.80
2023-03-24T12:13:41.951Z,17.80
2023-03-24T12:16:43.987Z,17.80
2023-03-24T12:19:45.114Z,17.80
2023-03-24T12:22:40.502Z,17.70
2023-03-24T12:25:33.668Z,17.70
2023-03-24T12:28:48.917Z,17.70
2023-03-24T12:31:54.983Z,17.70
2023-03-24T12:35:20.728Z,17.70
2023-03-24T12:38:15.910Z,17.70
2023-03-24T12:41:36.274Z,17.60
2023-03-24T12:44:48.306Z,17.70
2023-03-24T12:47:55.519Z,17.70
2023-03-24T12:50:47.569Z,17.70
2023-03-24T12:53:42.114Z,17.80
2023-03-24T12:56:22.527Z,17.80
2023-03-24T12:59:03.973Z,18.00
2023-03-24T13:01:42.764Z,18.00
2023-03-24T13:04:25.002Z,18.10
2023-03-24T13:07:07.617Z,18.10
2023-03-24T13:09:53.157Z,18.20
2023-03-24T13:12:34.335Z,18.20
2023-03-24T13:15:18.587Z,18.20
2023-03-24T13:18:09.133Z,18.20
2023-03-24T13:20:50.337Z,18.10
2023-03-24T13:23:51.916Z,18.10
2023-03-24T13:26:40.022Z,18.00
2023-03-24T13:32:32.066Z,17.80
2023-03-24T13:35:16.778Z,17.70
2023-03-24T13:37:57.903Z,17.60
2023-03-24T13:40:33.510Z,17.50
2023-03-24T13:43:14.316Z,17.40
2023-03-24T13:45:51.622Z,17.40
2023-03-24T13:48:37.613Z,17.40
2023-03-24T13:51:19.798Z,17.30
2023-03-24T13:54:00.279Z,17.30
2023-03-24T13:56:37.800Z,17.30
2023-03-24T13:59:28.570Z,17.30
2023-03-24T14:02:22.793Z,17.30
2023-03-24T14:05:09.990Z,17.30
2023-03-24T14:07:47.619Z,17.30
2023-03-24T14:10:43.793Z,17.20
2023-03-24T14:13:35.436Z,17.10
2023-03-24T14:16:37.291Z,17.10
2023-03-24T14:19:24.220Z,17.00
2023-03-24T14:22:14.311Z,17.00
2023-03-24T14:24:59.489Z,17.10
2023-03-24T14:27:42.841Z,17.10
2023-03-24T14:30:25.212Z,17.10
2023-03-24T14:33:02.806Z,17.10
2023-03-24T14:35:44.987Z,17.20
2023-03-24T14:38:27.540Z,17.20
2023-03-24T14:41:10.398Z,17.20
2023-03-24T14:44:09.601Z,17.20
2023-03-24T14:46:48.357Z,17.10
2023-03-24T14:49:28.335Z,17.10
2023-03-24T14:52:14.303Z,17.00
2023-03-24T14:54:54.977Z,16.90
2023-03-24T14:57:31.976Z,16.80
2023-03-24T15:00:12.527Z,16.70
2023-03-24T15:02:49.211Z,16.60
2023-03-24T15:05:32.294Z,16.50
2023-03-24T15:08:16.876Z,16.50
2023-03-24T15:10:59.084Z,16.40
2023-03-24T15:13:40.747Z,16.40
2023-03-24T15:16:28.965Z,16.40
2023-03-24T15:19:09.756Z,16.40
2023-03-24T15:21:49.696Z,16.50
2023-03-24T15:24:32.422Z,16.50
2023-03-24T15:27:27.336Z,16.60
2023-03-24T15:30:05.274Z,16.70
2023-03-24T15:32:46.457Z,16.70
2023-03-24T15:35:23.488Z,16.70
2023-03-24T15:37:58.833Z,16.70
2023-03-24T15:40:40.403Z,16.70
2023-03-24T15:43:22.267Z,16.70
2023-03-24T15:46:11.132Z,16.60
2023-03-24T15:48:49.368Z,16.60
2023-03-24T15:51:50.877Z,16.60
2023-03-24T15:54:27.564Z,16.50
2023-03-24T15:57:04.781Z,16.50
2023-03-24T15:59:38.607Z,16.50
2023-03-24T16:02:24.852Z,16.40
2023-03-24T16:07:43.353Z,16.30
2023-03-24T16:10:33.716Z,16.30
2023-03-24T16:13:20.277Z,16.20
2023-03-24T16:15:59.865Z,16.20
2023-03-24T16:18:37.481Z,16.00
2023-03-24T16:21:17.317Z,15.90
2023-03-24T16:23:54.626Z,15.70
2023-03-24T16:26:30.706Z,15.60
2023-03-24T16:29:17.460Z,15.40
2023-03-24T16:31:53.413Z,15.30
2023-03-24T16:34:27.522Z,15.20
2023-03-24T16:37:02.907Z,15.10
2023-03-24T16:39:37.731Z,15.00
2023-03-24T16:42:11.280Z,14.90
2023-03-24T16:44:46.428Z,14.80
2023-03-24T16:47:19.869Z,14.80
2023-03-24T16:49:53.757Z,14.80
2023-03-24T16:52:28.802Z,14.80
2023-03-24T16:55:02.469Z,14.80
2023-03-24T16:57:38.380Z,14.90
2023-03-24T17:00:14.786Z,14.90
2023-03-24T17:02:49.703Z,15.00
2023-03-24T17:05:28.396Z,15.00
2023-03-24T17:08:03.674Z,15.10
2023-03-24T17:10:38.111Z,15.10
2023-03-24T17:13:20.129Z,15.10
2023-03-24T17:15:54.519Z,15.00
2023-03-24T17:18:45.204Z,15.00
2023-03-24T17:21:22.148Z,15.00
2023-03-24T17:23:57.163Z,14.90
2023-03-24T17:26:32.103Z,14.80
2023-03-24T17:29:06.071Z,14.80
2023-03-24T17:31:40.027Z,14.70
2023-03-24T17:34:21.444Z,14.60
2023-03-24T17:36:55.789Z,14.60
2023-03-24T17:39:31.349Z,14.50
2023-03-24T17:42:05.331Z,14.50
2023-03-24T17:44:39.890Z,14.40
2023-03-24T17:47:13.522Z,14.40
2023-03-24T17:49:47.892Z,14.40
2023-03-24T17:52:22.813Z,14.30
2023-03-24T17:54:58.340Z,14.30
2023-03-24T17:57:32.243Z,14.30
2023-03-24T18:00:11.610Z,14.20
2023-03-24T18:02:46.602Z,14.20
2023-03-24T18:05:21.593Z,14.20
2023-03-24T18:07:55.474Z,14.00
2023-03-24T18:10:34.359Z,14.10
2023-03-24T18:13:09.279Z,14.10
2023-03-24T18:15:44.341Z,14.00
2023-03-24T18:18:17.701Z,14.00
2023-03-24T18:20:51.730Z,14.00
2023-03-24T18:23:25.766Z,14.00
2023-03-24T18:26:04.526Z,13.90
2023-03-24T18:28:42.464Z,13.90
2023-03-24T18:31:20.149Z,13.90
2023-03-24T18:33:55.574Z,13.90
2023-03-24T18:36:29.281Z,13.90
2023-03-24T18:39:08.683Z,13.90
2023-03-24T18:41:44.132Z,13.80
2023-03-24T18:44:22.658Z,13.80
2023-03-24T18:46:58.614Z,13.80
2023-03-24T18:49:32.210Z,13.80
2023-03-24T18:52:08.385Z,13.80
2023-03-24T18:54:43.112Z,13.70
2023-03-24T18:57:27.261Z,13.70
2023-03-24T19:00:01.321Z,13.70
2023-03-24T19:02:35.245Z,13.70
2023-03-24T19:05:10.290Z,13.70
2023-03-24T19:07:45.734Z,13.70
2023-03-24T19:10:19.691Z,13.70
2023-03-24T19:12:56.830Z,13.70
2023-03-24T19:15:32.077Z,13.70
2023-03-24T19:18:05.897Z,13.60
2023-03-24T19:20:42.167Z,13.60
2023-03-24T19:23:16.339Z,13.60
2023-03-24T19:25:55.251Z,13.60
2023-03-24T19:28:32.737Z,13.60
2023-03-24T19:31:10.700Z,13.60
2023-03-24T19:33:45.732Z,13.60
2023-03-24T19:36:19.941Z,13.60
2023-03-24T19:38:53.846Z,13.60
2023-03-24T19:41:27.557Z,13.60
2023-03-24T19:44:03.284Z,13.60
2023-03-24T19:46:37.220Z,13.60
2023-03-24T19:49:11.132Z,13.60
2023-03-24T19:51:45.001Z,13.60
2023-03-24T19:54:18.708Z,13.60
2023-03-24T19:56:52.664Z,13.70
2023-03-24T19:59:27.771Z,13.70
2023-03-24T20:02:02.104Z,13.70
2023-03-24T20:04:35.651Z,13.70
2023-03-24T20:07:09.782Z,13.70
2023-03-24T20:09:44.094Z,13.70
2023-03-24T20:12:17.822Z,13.70
2023-03-24T20:14:53.129Z,13.70
2023-03-24T20:17:29.039Z,13.70
2023-03-24T20:20:02.820Z,13.80
2023-03-24T20:22:36.800Z,13.80
2023-03-24T20:25:12.721Z,13.80
2023-03-24T20:27:47.966Z,13.80
2023-03-24T20:30:24.359Z,13.80
2023-03-24T20:32:59.253Z,13.70
2023-03-24T20:35:33.978Z,13.70
2023-03-24T20:38:09.399Z,13.70
2023-03-24T20:40:43.403Z,13.70
2023-03-24T20:43:17.284Z,13.70
2023-03-24T20:45:55.947Z,13.70
2023-03-24T20:48:30.977Z,13.70
2023-03-24T20:51:05.831Z,13.70
2023-03-24T20:53:40.679Z,13.60
2023-03-24T20:56:15.619Z,13.60
2023-03-24T20:58:50.445Z,13.60
2023-03-24T21:01:26.040Z,13.60
2023-03-24T21:04:08.374Z,13.60
2023-03-24T21:06:42.810Z,13.60
2023-03-24T21:09:17.002Z,13.60
2023-03-24T21:11:51.049Z,13.50
2023-03-24T21:14:25.373Z,13.50
2023-03-24T21:17:00.864Z,13.50
2023-03-24T21:19:34.730Z,13.50
2023-03-24T21:22:14.676Z,13.50
2023-03-24T21:24:48.359Z,13.50
2023-03-24T21:27:22.423Z,13.50
2023-03-24T21:29:57.153Z,13.40
2023-03-24T21:32:32.357Z,13.50
2023-03-24T21:35:09.032Z,13.40
2023-03-24T21:37:46.013Z,13.40
2023-03-24T21:40:22.538Z,13.40
2023-03-24T21:42:56.297Z,13.00
2023-03-24T21:45:36.442Z,13.40
2023-03-24T21:48:14.367Z,13.40
2023-03-24T21:50:50.710Z,13.40
2023-03-24T21:53:26.191Z,13.30
2023-03-24T21:56:04.927Z,13.30
2023-03-24T21:58:38.902Z,13.30
2023-03-24T22:01:14.128Z,13.30
2023-03-24T22:03:49.059Z,13.30
2023-03-24T22:06:23.316Z,13.30
2023-03-24T22:09:06.364Z,13.30
2023-03-24T22:11:43.152Z,13.20
2023-03-24T22:14:19.465Z,13.20
2023-03-24T22:16:52.974Z,13.40
2023-03-24T22:19:28.454Z,13.20
2023-03-24T22:22:02.172Z,13.20
2023-03-24T22:24:36.082Z,13.10
2023-03-24T22:27:09.931Z,13.10
2023-03-24T22:29:43.921Z,13.10
2023-03-24T22:32:17.456Z,13.10
2023-03-24T22:34:52.833Z,13.10
2023-03-24T22:37:26.401Z,13.20
2023-03-24T22:40:00.411Z,13.10
2023-03-24T22:42:34.192Z,13.10
2023-03-24T22:45:10.423Z,13.10
2023-03-24T22:47:44.045Z,13.10
2023-03-24T22:50:19.392Z,13.10
2023-03-24T22:52:52.746Z,13.10
2023-03-24T22:55:27.577Z,13.00
2023-03-24T22:58:01.456Z,13.00
2023-03-24T23:00:35.613Z,13.00
2023-03-24T23:03:10.066Z,13.00
2023-03-24T23:05:47.155Z,13.00
2023-03-24T23:08:21.064Z,13.00
2023-03-24T23:10:54.924Z,13.00
2023-03-24T23:13:31.129Z,13.00
2023-03-24T23:16:05.146Z,13.00
2023-03-24T23:18:39.748Z,13.00
2023-03-24T23:21:19.003Z,13.00
2023-03-24T23:23:52.863Z,13.00
2023-03-24T23:26:30.125Z,12.90
2023-03-24T23:29:04.549Z,12.90
2023-03-24T23:31:41.480Z,12.90
2023-03-24T23:34:15.240Z,12.90
2023-03-24T23:36:51.664Z,12.80
2023-03-24T23:39:26.362Z,12.80
2023-03-24T23:42:00.134Z,12.80
2023-03-24T23:44:34.584Z,12.80
2023-03-24T23:47:09.332Z,12.80
2023-03-24T23:49:43.654Z,12.70
2023-03-24T23:52:19.326Z,12.70
2023-03-24T23:54:53.337Z,12.70
2023-03-24T23:57:27.638Z,12.70
